createdAt,value
2024-04-23T00:02:18.310Z,8.30
2024-04-23T00:04:45.222Z,8.39
2024-04-23T00:07:12.059Z,8.13
2024-04-23T00:09:41.518Z,7.99
2024-04-23T00:12:08.325Z,7.75
2024-04-23T00:14:35.109Z,8.31
2024-04-23T00:17:03.007Z,8.18
2024-04-23T00:19:29.942Z,8.65
2024-04-23T00:21:56.758Z,8.49
2024-04-23T00:24:23.642Z,8.42
2024-04-23T00:26:57.397Z,8.50
2024-04-23T00:29:24.248Z,8.47
2024-04-23T00:31:51.104Z,8.31
2024-04-23T00:34:17.943Z,8.42
2024-04-23T00:36:51.393Z,8.06
2024-04-23T00:39:18.218Z,8.10
2024-04-23T00:41:45.031Z,8.33
2024-04-23T00:44:14.459Z,8.71
2024-04-23T00:46:41.352Z,8.78
2024-04-23T00:49:09.423Z,8.55
2024-04-23T00:51:36.269Z,8.04
2024-04-23T00:54:03.230Z,8.43
2024-04-23T00:56:30.032Z,8.53
2024-04-23T00:58:57.252Z,8.53
2024-04-23T01:01:26.756Z,8.57
2024-04-23T01:03:53.634Z,8.31
2024-04-23T01:06:20.517Z,7.96
2024-04-23T01:08:47.475Z,7.88
2024-04-23T01:11:14.324Z,8.16
2024-04-23T01:13:41.149Z,8.17
2024-04-23T01:16:08.018Z,8.32
2024-04-23T01:18:37.502Z,7.92
2024-04-23T01:21:04.792Z,7.79
2024-04-23T01:23:32.773Z,7.83
2024-04-23T01:26:05.156Z,8.13
2024-04-23T01:28:32.035Z,8.13
2024-04-23T01:30:58.912Z,8.14
2024-04-23T01:33:25.824Z,8.43
2024-04-23T01:35:52.691Z,8.90
2024-04-23T01:38:19.548Z,8.15
2024-04-23T01:40:46.389Z,8.57
2024-04-23T01:43:15.946Z,7.85
2024-04-23T01:45:42.983Z,8.00
2024-04-23T01:48:09.866Z,7.74
2024-04-23T01:50:36.802Z,7.46
2024-04-23T01:53:03.781Z,7.57
2024-04-23T01:55:30.643Z,8.08
2024-04-23T01:57:57.508Z,7.64
2024-04-23T02:00:26.975Z,8.05
2024-04-23T02:02:53.898Z,7.47
2024-04-23T02:05:20.777Z,7.60
2024-04-23T02:07:47.611Z,7.21
2024-04-23T02:10:14.440Z,7.35
2024-04-23T02:12:41.259Z,7.22
2024-04-23T02:15:08.492Z,7.45
2024-04-23T02:17:38.186Z,7.54
2024-04-23T02:20:06.082Z,7.47
2024-04-23T02:22:32.959Z,7.54
2024-04-23T02:24:59.784Z,7.04
2024-04-23T02:27:26.577Z,7.32
2024-04-23T02:29:53.424Z,7.19
2024-04-23T02:32:20.309Z,7.15
2024-04-23T02:34:49.820Z,7.05
2024-04-23T02:37:16.807Z,6.86
2024-04-23T02:39:43.675Z,6.73
2024-04-23T02:42:10.550Z,6.56
2024-04-23T02:44:37.441Z,7.08
2024-04-23T02:47:04.358Z,6.73
2024-04-23T02:49:31.262Z,7.23
2024-04-23T02:52:00.725Z,6.98
2024-04-23T02:54:28.353Z,6.79
2024-04-23T02:56:55.134Z,7.08
2024-04-23T02:59:22.452Z,6.68
2024-04-23T03:01:49.394Z,6.91
2024-04-23T03:04:16.677Z,7.20
2024-04-23T03:06:43.566Z,6.95
2024-04-23T03:09:13.020Z,6.78
2024-04-23T03:11:39.912Z,7.24
2024-04-23T03:14:06.811Z,7.05
2024-04-23T03:16:33.770Z,7.00
2024-04-23T03:19:00.606Z,7.20
2024-04-23T03:21:27.408Z,7.22
2024-04-23T03:23:54.276Z,7.07
2024-04-23T03:26:23.718Z,7.20
2024-04-23T03:28:50.632Z,7.41
2024-04-23T03:31:17.448Z,6.90
2024-04-23T03:33:44.273Z,7.49
2024-04-23T03:36:11.963Z,7.29
2024-04-23T03:38:39.835Z,7.65
2024-04-23T03:41:06.659Z,7.33
2024-04-23T03:43:36.165Z,7.22
2024-04-23T03:46:02.982Z,7.44
2024-04-23T03:48:29.833Z,7.55
2024-04-23T03:50:56.672Z,7.46
2024-04-23T03:53:23.486Z,7.82
2024-04-23T03:55:50.309Z,7.85
2024-04-23T03:58:17.144Z,7.95
2024-04-23T04:00:46.668Z,8.01
2024-04-23T04:03:13.537Z,8.19
2024-04-23T04:05:40.359Z,8.27
2024-04-23T04:08:07.501Z,8.08
2024-04-23T04:10:34.355Z,8.19
2024-04-23T04:13:12.896Z,8.48
2024-04-23T04:15:50.656Z,8.05
2024-04-23T04:18:17.577Z,8.81
2024-04-23T04:20:44.433Z,8.71
2024-04-23T04:23:11.367Z,8.66
2024-04-23T04:25:38.258Z,8.90
2024-04-23T04:28:05.900Z,8.49
2024-04-23T04:30:32.768Z,8.63
2024-04-23T04:33:02.334Z,8.51
2024-04-23T04:35:29.355Z,8.98
2024-04-23T04:37:56.328Z,8.93
2024-04-23T04:40:23.235Z,8.90
2024-04-23T04:42:50.080Z,8.67
2024-04-23T04:45:17.199Z,8.93
2024-04-23T04:47:44.207Z,9.01
2024-04-23T04:50:13.926Z,9.46
2024-04-23T04:52:40.808Z,9.55
2024-04-23T04:55:07.754Z,9.74
2024-04-23T04:57:34.565Z,9.92
2024-04-23T05:00:01.436Z,9.39
2024-04-23T05:02:28.581Z,9.12
2024-04-23T05:04:55.432Z,9.42
2024-04-23T05:07:24.864Z,9.76
2024-04-23T05:09:51.686Z,9.72
2024-04-23T05:12:18.618Z,9.95
2024-04-23T05:14:45.519Z,9.88
2024-04-23T05:17:12.457Z,9.87
2024-04-23T05:19:39.405Z,10.25
2024-04-23T05:22:06.268Z,9.84
2024-04-23T05:24:35.673Z,9.87
2024-04-23T05:27:02.519Z,10.54
2024-04-23T05:29:29.391Z,9.79
2024-04-23T05:31:56.253Z,10.43
2024-04-23T05:34:23.103Z,9.93
2024-04-23T05:36:49.980Z,9.91
2024-04-23T05:39:16.843Z,10.28
2024-04-23T05:41:46.336Z,12.99
2024-04-23T05:44:13.206Z,17.76
2024-04-23T05:46:40.065Z,11.28
2024-04-23T05:49:44.414Z,10.12
2024-04-23T05:53:07.578Z,9.84
2024-04-23T05:55:53.074Z,9.61
2024-04-23T05:58:22.586Z,10.10
2024-04-23T06:00:49.427Z,9.88
2024-04-23T06:03:16.286Z,10.09
2024-04-23T06:05:43.278Z,10.28
2024-04-23T06:08:10.176Z,10.02
2024-04-23T06:10:37.079Z,9.83
2024-04-23T06:13:04.132Z,9.59
2024-04-23T06:15:33.590Z,9.76
2024-04-23T06:18:00.552Z,9.64
2024-04-23T06:20:27.436Z,9.83
2024-04-23T06:22:54.431Z,9.89
2024-04-23T06:25:21.492Z,9.77
2024-04-23T06:27:48.329Z,9.66
2024-04-23T06:30:15.223Z,9.28
2024-04-23T06:32:44.857Z,9.02
2024-04-23T06:35:11.823Z,9.23
2024-04-23T06:37:38.928Z,9.39
2024-04-23T06:40:07.112Z,9.21
2024-04-23T06:42:33.980Z,9.30
2024-04-23T06:45:00.801Z,8.99
2024-04-23T06:47:27.730Z,9.38
2024-04-23T06:49:57.346Z,9.09
2024-04-23T06:52:24.245Z,8.49
2024-04-23T06:54:51.119Z,8.68
2024-04-23T06:57:17.933Z,9.16
2024-04-23T06:59:44.786Z,8.71
2024-04-23T07:02:11.780Z,8.93
2024-04-23T07:04:38.737Z,9.05
2024-04-23T07:07:08.225Z,8.76
2024-04-23T07:09:35.066Z,8.15
2024-04-23T07:12:01.924Z,8.39
2024-04-23T07:14:28.749Z,8.08
2024-04-23T07:16:55.649Z,8.66
2024-04-23T07:19:22.611Z,8.22
2024-04-23T07:21:49.429Z,8.64
2024-04-23T07:24:18.890Z,8.34
2024-04-23T07:26:45.734Z,8.23
2024-04-23T07:29:12.600Z,8.47
2024-04-23T07:31:39.470Z,9.02
2024-04-23T07:34:06.381Z,9.20
2024-04-23T07:36:33.155Z,8.80
2024-04-23T07:38:59.987Z,8.74
2024-04-23T07:41:29.449Z,7.87
2024-04-23T07:43:56.353Z,7.86
2024-04-23T07:46:23.214Z,7.79
2024-04-23T07:48:50.077Z,7.56
2024-04-23T07:51:16.956Z,7.36
2024-04-23T07:53:43.747Z,7.53
2024-04-23T07:56:10.649Z,7.93
2024-04-23T07:58:40.335Z,7.94
2024-04-23T08:01:07.283Z,7.86
2024-04-23T08:03:34.162Z,7.35
2024-04-23T08:06:00.966Z,7.03
2024-04-23T08:08:27.762Z,7.21
2024-04-23T08:10:54.627Z,7.27
2024-04-23T08:13:21.440Z,7.00
2024-04-23T08:15:50.957Z,6.93
2024-04-23T08:18:17.932Z,6.86
2024-04-23T08:20:44.809Z,6.44
2024-04-23T08:23:11.653Z,6.45
2024-04-23T08:25:38.530Z,6.86
2024-04-23T08:28:05.905Z,6.63
2024-04-23T08:30:32.813Z,6.77
2024-04-23T08:33:02.385Z,6.41
2024-04-23T08:35:29.493Z,6.45
2024-04-23T08:37:56.427Z,6.27
2024-04-23T08:40:23.449Z,6.41
2024-04-23T08:42:50.647Z,6.03
2024-04-23T08:45:17.454Z,6.47
2024-04-23T08:47:44.519Z,6.65
2024-04-23T08:50:14.068Z,6.29
2024-04-23T08:52:40.971Z,6.19
2024-04-23T08:55:07.787Z,6.74
2024-04-23T08:57:34.599Z,6.87
2024-04-23T09:00:03.665Z,6.94
2024-04-23T09:02:32.316Z,7.14
2024-04-23T09:04:59.257Z,7.30
2024-04-23T09:07:32.987Z,6.90
2024-04-23T09:10:01.336Z,7.05
2024-04-23T09:12:28.264Z,6.81
2024-04-23T09:14:55.072Z,7.21
2024-04-23T09:17:22.088Z,6.52
2024-04-23T09:19:48.961Z,6.66
2024-04-23T09:22:15.754Z,6.54
2024-04-23T09:24:45.167Z,6.39
2024-04-23T09:27:12.120Z,5.79
2024-04-23T09:29:38.968Z,5.95
2024-04-23T09:32:06.005Z,5.84
2024-04-23T09:34:36.917Z,5.72
2024-04-23T09:37:16.205Z,6.32
2024-04-23T09:39:47.314Z,6.63
2024-04-23T09:42:22.409Z,6.74
2024-04-23T09:44:49.278Z,6.67
2024-04-23T09:47:16.285Z,6.93
2024-04-23T09:49:46.139Z,6.95
2024-04-23T09:52:13.394Z,7.03
2024-04-23T09:54:40.429Z,7.54
2024-04-23T09:57:09.855Z,11.47
2024-04-23T09:59:36.669Z,7.47
2024-04-23T10:02:03.805Z,7.30
2024-04-23T10:04:31.065Z,7.36
2024-04-23T10:06:58.067Z,7.34
2024-04-23T10:09:27.201Z,7.13
2024-04-23T10:11:54.736Z,6.74
2024-04-23T10:14:25.400Z,6.79
2024-04-23T10:16:55.653Z,7.56
2024-04-23T10:19:22.497Z,7.42
2024-04-23T10:21:49.301Z,7.32
2024-04-23T10:24:16.126Z,7.34
2024-04-23T10:26:43.086Z,7.21
2024-04-23T10:29:10.387Z,7.64
2024-04-23T10:31:40.222Z,7.05
2024-04-23T10:34:08.017Z,7.19
2024-04-23T10:36:36.806Z,7.90
2024-04-23T10:39:03.800Z,7.52
2024-04-23T10:41:30.628Z,7.79
2024-04-23T10:43:57.649Z,7.91
2024-04-23T10:46:24.538Z,8.20
2024-04-23T10:48:55.904Z,8.10
2024-04-23T10:51:23.180Z,7.99
2024-04-23T10:53:50.016Z,8.16
2024-04-23T10:56:22.548Z,8.21
2024-04-23T10:58:49.525Z,8.65
2024-04-23T11:01:24.072Z,9.01
2024-04-23T11:03:58.648Z,8.56
2024-04-23T11:06:36.356Z,8.63
2024-04-23T11:09:13.055Z,8.97
2024-04-23T11:11:40.001Z,8.51
2024-04-23T11:14:06.916Z,8.39
2024-04-23T11:16:33.801Z,8.61
2024-04-23T11:19:03.402Z,9.30
2024-04-23T11:21:30.377Z,8.77
2024-04-23T11:23:57.218Z,8.42
2024-04-23T11:26:24.172Z,9.18
2024-04-23T11:28:51.133Z,9.11
2024-04-23T11:31:17.998Z,9.11
2024-04-23T11:33:44.934Z,9.16
2024-04-23T11:36:24.924Z,13.04
2024-04-23T11:38:51.856Z,9.92
2024-04-23T11:41:18.948Z,9.74
2024-04-23T11:43:46.025Z,9.48
2024-04-23T11:46:14.058Z,9.73
2024-04-23T11:48:40.914Z,9.89
2024-04-23T11:51:07.822Z,9.43
2024-04-23T11:53:37.271Z,9.27
2024-04-23T11:56:04.589Z,8.98
2024-04-23T11:58:31.419Z,9.26
2024-04-23T12:00:58.282Z,9.56
2024-04-23T12:03:25.103Z,9.58
2024-04-23T12:05:52.076Z,9.63
2024-04-23T12:08:18.937Z,9.43
2024-04-23T12:40:40.856Z,9.40
2024-04-23T12:43:08.846Z,8.86
2024-04-23T12:45:35.759Z,8.85
2024-04-23T12:48:03.019Z,8.72
2024-04-23T12:50:30.744Z,8.75
2024-04-23T12:52:57.619Z,8.46
2024-04-23T12:55:24.451Z,8.81
2024-04-23T12:57:53.837Z,8.83
2024-04-23T13:00:20.695Z,9.33
2024-04-23T13:02:47.603Z,8.77
2024-04-23T13:21:53.615Z,8.20
2024-04-23T13:24:20.463Z,11.66
2024-04-23T13:26:47.301Z,13.19
2024-04-23T13:29:14.322Z,7.79
2024-04-23T13:31:41.383Z,8.50
2024-04-23T13:34:08.213Z,7.71
2024-04-23T13:36:35.016Z,8.46
2024-04-23T13:39:04.533Z,9.13
2024-04-23T13:41:31.586Z,8.55
2024-04-23T13:43:58.445Z,8.64
2024-04-23T13:46:25.301Z,8.91
2024-04-23T13:48:52.273Z,8.94
2024-04-23T13:51:19.086Z,8.73
2024-04-23T13:53:46.435Z,8.48
2024-04-23T13:56:16.116Z,8.65
2024-04-23T13:58:43.089Z,8.47
2024-04-23T14:01:10.278Z,8.87
2024-04-23T14:03:37.395Z,8.25
2024-04-23T14:06:05.011Z,7.59
2024-04-23T14:08:32.226Z,7.29
2024-04-23T14:11:00.385Z,7.99
2024-04-23T14:13:32.501Z,8.38
2024-04-23T14:15:59.332Z,8.46
2024-04-23T14:18:27.349Z,7.88
2024-04-23T14:20:54.151Z,8.96
2024-04-23T14:23:20.980Z,9.11
2024-04-23T14:25:48.012Z,9.20
2024-04-23T14:28:14.886Z,10.29
2024-04-23T14:30:44.393Z,9.46
2024-04-23T14:33:11.363Z,9.46
2024-04-23T14:35:38.385Z,8.95
2024-04-23T14:38:06.330Z,8.62
2024-04-23T14:40:33.271Z,8.57
2024-04-23T14:43:00.177Z,8.61
2024-04-23T14:45:27.004Z,9.11
2024-04-23T14:47:56.616Z,8.70
2024-04-23T14:50:23.643Z,8.38
2024-04-23T14:52:51.269Z,8.60
2024-04-23T14:55:18.150Z,9.51
2024-04-23T14:57:45.082Z,18.08
2024-04-23T15:00:12.581Z,8.75
2024-04-23T15:02:40.140Z,8.69
2024-04-23T15:05:10.024Z,8.57
2024-04-23T15:07:37.170Z,9.08
2024-04-23T15:10:04.545Z,9.20
2024-04-23T15:12:31.462Z,9.71
2024-04-23T15:14:58.416Z,9.31
2024-04-23T15:17:25.395Z,9.12
2024-04-23T15:19:52.347Z,8.35
2024-04-23T15:22:21.985Z,8.47
2024-04-23T15:24:48.991Z,8.38
2024-04-23T15:27:15.859Z,8.45
2024-04-23T15:29:42.672Z,7.66
2024-04-23T15:32:09.658Z,7.34
2024-04-23T15:34:36.680Z,7.77
2024-04-23T15:37:03.799Z,7.90
2024-04-23T15:39:33.580Z,7.97
2024-04-23T15:42:00.444Z,8.31
2024-04-23T15:44:27.238Z,7.97
2024-04-23T15:46:54.122Z,8.98
2024-04-23T15:49:21.054Z,8.99
2024-04-23T15:51:47.910Z,9.67
2024-04-23T15:54:14.875Z,9.80
2024-04-23T15:56:44.404Z,9.59
2024-04-23T15:59:11.414Z,9.51
2024-04-23T16:01:38.418Z,9.28
2024-04-23T16:04:05.443Z,8.89
2024-04-23T16:06:32.338Z,9.81
2024-04-23T16:08:59.192Z,9.15
2024-04-23T16:11:26.358Z,9.60
2024-04-23T16:13:56.001Z,9.70
2024-04-23T16:16:22.912Z,9.91
2024-04-23T16:18:49.915Z,8.91
2024-04-23T16:21:16.933Z,9.36
2024-04-23T16:23:43.931Z,9.40
2024-04-23T16:26:11.466Z,9.27
2024-04-23T16:28:38.695Z,20.74
2024-04-23T16:31:08.572Z,26.14
2024-04-23T16:33:35.862Z,9.65
2024-04-23T16:36:03.361Z,9.59
2024-04-23T16:38:30.240Z,9.13
2024-04-23T16:40:57.309Z,9.24
2024-04-23T16:43:24.276Z,9.64
2024-04-23T16:45:51.256Z,9.38
2024-04-23T16:48:20.958Z,9.86
2024-04-23T16:50:51.286Z,9.44
2024-04-23T16:53:18.224Z,9.98
2024-04-23T16:55:45.239Z,9.66
2024-04-23T16:58:12.190Z,9.67
2024-04-23T17:00:39.169Z,9.84
2024-04-23T17:03:06.267Z,10.07
2024-04-23T17:05:36.018Z,10.18
2024-04-23T17:08:03.343Z,10.40
2024-04-23T17:10:31.173Z,10.20
2024-04-23T17:13:00.728Z,9.67
2024-04-23T17:15:27.915Z,9.77
2024-04-23T17:17:54.925Z,9.78
2024-04-23T17:20:21.955Z,10.03
2024-04-23T17:22:51.610Z,10.09
2024-04-23T17:25:18.917Z,10.01
2024-04-23T17:27:45.832Z,10.28
2024-04-23T17:30:12.792Z,10.29
2024-04-23T17:32:39.946Z,10.03
2024-04-23T17:35:07.110Z,10.18
2024-04-23T17:37:33.952Z,9.75
2024-04-23T17:40:03.715Z,9.91
2024-04-23T17:42:30.776Z,10.45
2024-04-23T17:44:57.670Z,10.99
2024-04-23T17:47:24.716Z,10.74
2024-04-23T17:49:51.718Z,11.08
2024-04-23T17:52:18.911Z,10.93
2024-04-23T17:54:45.800Z,10.92
2024-04-23T17:57:15.504Z,10.54
2024-04-23T17:59:42.406Z,10.72
2024-04-23T18:02:09.383Z,11.58
2024-04-23T18:04:36.390Z,10.54
2024-04-23T18:07:03.810Z,10.89
2024-04-23T18:09:30.832Z,11.12
2024-04-23T18:11:57.887Z,11.26
2024-04-23T18:14:27.451Z,11.16
2024-04-23T18:16:54.381Z,11.08
2024-04-23T18:19:21.348Z,10.53
2024-04-23T18:21:48.223Z,10.78
2024-04-23T18:24:15.500Z,10.78
2024-04-23T18:26:42.377Z,10.95
2024-04-23T18:29:09.451Z,10.99
2024-04-23T18:31:39.051Z,10.67
2024-04-23T18:34:06.049Z,10.50
2024-04-23T18:36:33.328Z,10.29
2024-04-23T18:39:00.437Z,10.16
2024-04-23T18:41:27.472Z,10.08
2024-04-23T18:43:54.385Z,10.26
2024-04-23T18:46:21.257Z,9.99
2024-04-23T18:48:50.982Z,9.26
2024-04-23T18:51:17.910Z,9.51
2024-04-23T18:53:44.873Z,9.81
2024-04-23T18:56:12.580Z,10.18
2024-04-23T18:58:39.552Z,9.63
2024-04-23T19:01:07.540Z,9.38
2024-04-23T19:03:34.507Z,9.09
2024-04-23T19:06:08.614Z,9.49
2024-04-23T19:08:35.483Z,9.57
2024-04-23T19:11:02.544Z,9.45
2024-04-23T19:13:29.536Z,9.65
2024-04-23T19:15:56.443Z,10.19
2024-04-23T19:18:23.468Z,9.42
2024-04-23T19:20:50.429Z,14.06
2024-04-23T19:23:20.145Z,13.02
2024-04-23T19:25:47.130Z,10.11
2024-04-23T19:28:14.012Z,10.01
2024-04-23T19:30:40.971Z,23.74
2024-04-23T19:33:08.348Z,14.79
2024-04-23T19:35:35.660Z,11.28
2024-04-23T19:38:02.993Z,11.30
2024-04-23T19:40:34.788Z,11.74
2024-04-23T19:43:02.242Z,11.04
2024-04-23T19:45:33.180Z,11.68
2024-04-23T19:48:00.468Z,11.66
2024-04-23T19:50:27.587Z,11.43
2024-04-23T19:52:54.549Z,11.75
2024-04-23T19:55:21.420Z,11.69
2024-04-23T19:57:51.557Z,12.07
2024-04-23T20:00:18.776Z,12.32
2024-04-23T20:02:45.784Z,11.73
2024-04-23T20:05:13.426Z,12.27
2024-04-23T20:07:40.344Z,14.54
2024-04-23T20:10:07.830Z,12.64
2024-04-23T20:12:34.921Z,11.06
2024-04-23T20:15:05.776Z,11.50
2024-04-23T20:17:33.000Z,11.19
2024-04-23T20:20:00.365Z,11.51
2024-04-23T20:22:27.372Z,11.94
2024-04-23T20:24:54.313Z,12.39
2024-04-23T20:27:21.194Z,13.07
2024-04-23T20:29:48.086Z,16.03
2024-04-23T20:32:17.850Z,15.27
2024-04-23T20:34:44.778Z,14.76
2024-04-23T20:37:11.741Z,14.01
2024-04-23T20:39:38.808Z,12.18
2024-04-23T20:42:06.069Z,12.54
2024-04-23T20:44:33.067Z,13.34
2024-04-23T20:46:59.986Z,12.30
2024-04-23T20:49:29.580Z,12.58
2024-04-23T20:51:56.587Z,12.15
2024-04-23T20:54:23.514Z,12.96
2024-04-23T20:56:50.657Z,12.19
2024-04-23T20:59:17.646Z,12.26
2024-04-23T21:01:44.547Z,12.39
2024-04-23T21:04:11.527Z,12.67
2024-04-23T21:06:41.205Z,12.67
2024-04-23T21:09:08.110Z,12.03
2024-04-23T21:11:35.091Z,12.14
2024-04-23T21:14:02.175Z,12.31
2024-04-23T21:16:29.173Z,12.71
2024-04-23T21:18:56.286Z,12.62
2024-04-23T21:21:23.200Z,12.29
2024-04-23T21:23:52.701Z,12.88
2024-04-23T21:26:19.631Z,12.63
2024-04-23T21:28:46.614Z,12.08
2024-04-23T21:31:13.491Z,12.15
2024-04-23T21:33:40.508Z,13.31
2024-04-23T21:36:08.344Z,12.73
2024-04-23T21:38:35.651Z,12.77
2024-04-23T21:41:09.289Z,13.18
2024-04-23T21:43:39.640Z,12.67
2024-04-23T21:46:07.257Z,12.04
2024-04-23T21:48:34.534Z,12.49
2024-04-23T21:51:04.749Z,12.85
2024-04-23T21:53:31.689Z,12.85
2024-04-23T21:55:58.889Z,13.07
2024-04-23T21:58:28.408Z,13.11
2024-04-23T22:00:55.623Z,12.98
2024-04-23T22:03:22.898Z,13.79
2024-04-23T22:05:50.004Z,13.81
2024-04-23T22:08:16.920Z,13.32
2024-04-23T22:10:43.932Z,13.26
2024-04-23T22:13:11.067Z,14.43
2024-04-23T22:15:43.905Z,13.32
2024-04-23T22:18:11.538Z,13.52
2024-04-23T22:20:38.725Z,13.58
2024-04-23T22:23:05.825Z,13.81
2024-04-23T22:25:32.967Z,13.75
2024-04-23T22:28:00.047Z,13.76
2024-04-23T22:30:27.108Z,13.24
2024-04-23T22:32:56.949Z,13.30
2024-04-23T22:35:23.952Z,13.09
2024-04-23T22:37:51.173Z,12.77
2024-04-23T22:40:18.196Z,12.48
2024-04-23T22:42:45.124Z,12.59
2024-04-23T22:45:11.992Z,12.25
2024-04-23T22:47:39.009Z,11.89
2024-04-23T22:50:08.919Z,11.67
2024-04-23T22:52:35.763Z,12.49
2024-04-23T22:55:02.610Z,13.14
2024-04-23T22:57:29.520Z,12.98
2024-04-23T22:59:56.399Z,13.67
2024-04-23T23:02:23.271Z,12.83
2024-04-23T23:04:50.227Z,13.15
2024-04-23T23:07:19.707Z,13.01
2024-04-23T23:09:46.535Z,13.68
2024-04-23T23:12:13.372Z,13.66
2024-04-23T23:14:40.267Z,13.88
2024-04-23T23:17:07.161Z,14.57
2024-04-23T23:19:34.019Z,14.92
2024-04-23T23:22:00.859Z,15.03
2024-04-23T23:24:30.300Z,14.78
2024-04-23T23:26:57.199Z,15.09
2024-04-23T23:29:24.030Z,15.35
2024-04-23T23:31:50.996Z,15.13
2024-04-23T23:34:17.830Z,15.21
2024-04-23T23:36:44.688Z,15.05
2024-04-23T23:39:11.501Z,15.81
2024-04-23T23:41:40.972Z,15.63
2024-04-23T23:44:07.800Z,15.64
2024-04-23T23:46:34.847Z,15.59
2024-04-23T23:49:01.731Z,16.16
2024-04-23T23:51:28.527Z,15.35
2024-04-23T23:53:55.482Z,15.32
2024-04-23T23:56:22.313Z,16.14
2024-04-23T23:58:51.880Z,15.99
